Time;durP1;ratioP1;P1;durP2;ratioP2;P2;SDS_P1;SDS_P2;PMS_P1;PMS_P2;Temp;Humidity;BMP_temperature;BMP_pressure;BME280_temperature;BME280_humidity;BME280_pressure;Samples;Min_cycle;Max_cycle;Signal;HPM_P1;HPM_P2
2022/02/12 00:00:52;;;;;;;12.95;4.10;;;2.40;99.90;;;;;;5016324;28;20528;-53
2022/02/12 00:03:18;;;;;;;9.85;3.78;;;2.40;99.90;;;;;;5017196;28;20046;-54
2022/02/12 00:05:44;;;;;;;10.43;4.53;;;2.40;99.90;;;;;;5017701;28;20124;-52
2022/02/12 00:08:10;;;;;;;11.32;3.72;;;2.40;99.90;;;;;;5016483;28;20034;-56
2022/02/12 00:10:35;;;;;;;12.63;4.18;;;2.20;99.90;;;;;;5016915;28;20022;-55
2022/02/12 00:13:01;;;;;;;14.40;3.90;;;2.30;99.90;;;;;;5014845;28;20036;-53
2022/02/12 00:15:26;;;;;;;13.23;3.65;;;2.20;99.90;;;;;;5011742;28;20031;-55
2022/02/12 00:17:54;;;;;;;11.20;3.88;;;2.20;99.90;;;;;;5014417;28;20469;-50
2022/02/12 00:20:19;;;;;;;14.20;4.43;;;2.30;99.90;;;;;;5014072;28;20390;-51
2022/02/12 00:22:45;;;;;;;15.52;4.32;;;2.20;99.90;;;;;;5018090;28;20049;-54
2022/02/12 00:25:11;;;;;;;12.93;3.95;;;2.10;99.90;;;;;;5034764;28;20056;-55
2022/02/12 00:27:37;;;;;;;10.95;3.55;;;2.00;99.90;;;;;;5021551;28;20033;-54
2022/02/12 00:30:06;;;;;;;9.82;3.88;;;2.10;99.90;;;;;;5014235;28;20052;-52
2022/02/12 00:32:31;;;;;;;10.63;4.05;;;2.00;99.90;;;;;;5014265;28;20048;-53
2022/02/12 00:34:57;;;;;;;15.23;4.85;;;2.00;99.90;;;;;;5014740;28;20047;-53
2022/02/12 00:37:25;;;;;;;11.77;5.00;;;2.00;99.90;;;;;;5012421;28;20033;-53
2022/02/12 00:39:51;;;;;;;8.10;3.83;;;2.00;99.90;;;;;;5012777;28;20026;-52
2022/02/12 00:42:18;;;;;;;16.25;4.15;;;2.00;99.90;;;;;;5014304;28;20040;-56
2022/02/12 00:44:44;;;;;;;13.65;4.57;;;1.90;99.90;;;;;;5014321;28;20121;-53
2022/02/12 00:47:09;;;;;;;17.85;4.40;;;1.80;99.90;;;;;;5014719;28;20064;-52
2022/02/12 00:49:36;;;;;;;12.32;4.18;;;1.70;99.90;;;;;;4980968;28;20032;-51
2022/02/12 00:52:02;;;;;;;10.68;4.03;;;1.50;99.90;;;;;;5011920;28;20554;-54
2022/02/12 00:54:28;;;;;;;16.10;4.70;;;1.60;99.90;;;;;;5021392;28;20122;-50
2022/02/12 00:56:54;;;;;;;13.07;4.55;;;1.60;99.90;;;;;;5015316;28;20113;-52
2022/02/12 00:59:19;;;;;;;12.82;5.03;;;1.60;99.90;;;;;;5014951;28;20026;-54
2022/02/12 01:01:45;;;;;;;11.77;6.60;;;1.70;99.90;;;;;;4997113;28;20091;-53
2022/02/12 01:04:10;;;;;;;11.75;4.15;;;1.70;99.90;;;;;;5014378;28;20026;-53
2022/02/12 01:06:36;;;;;;;13.50;4.30;;;1.70;99.90;;;;;;5014410;28;20073;-54
2022/02/12 01:09:03;;;;;;;12.88;4.55;;;1.70;99.90;;;;;;5014512;28;20049;-54
2022/02/12 01:11:28;;;;;;;10.15;4.05;;;1.70;99.90;;;;;;5015117;28;20038;-52
2022/02/12 01:13:54;;;;;;;11.20;4.03;;;1.70;99.90;;;;;;4997041;28;20044;-53
2022/02/12 01:16:20;;;;;;;7.88;3.97;;;1.60;99.90;;;;;;5014850;28;20132;-53
2022/02/12 01:18:46;;;;;;;10.75;4.53;;;1.50;99.90;;;;;;5014880;28;20040;-53
2022/02/12 01:21:11;;;;;;;11.02;4.40;;;1.50;99.90;;;;;;5014400;28;20041;-54
2022/02/12 01:23:37;;;;;;;11.20;4.15;;;1.60;99.90;;;;;;4996845;28;20084;-54
2022/02/12 01:26:03;;;;;;;9.40;3.60;;;1.70;99.90;;;;;;4997010;28;20069;-52
2022/02/12 01:28:29;;;;;;;11.30;4.20;;;1.70;99.90;;;;;;5014745;28;20025;-54
2022/02/12 01:30:55;;;;;;;9.65;5.07;;;1.50;99.90;;;;;;5014848;28;20117;-56
2022/02/12 01:33:20;;;;;;;11.90;4.30;;;1.40;99.90;;;;;;5013992;28;20463;-51
2022/02/12 01:35:46;;;;;;;9.35;4.20;;;1.40;99.90;;;;;;5015525;28;20109;-52
2022/02/12 01:38:13;;;;;;;10.40;4.40;;;1.40;99.90;;;;;;5018096;28;20048;-51
2022/02/12 01:40:38;;;;;;;11.95;4.03;;;1.40;99.90;;;;;;5013568;28;20030;-54
2022/02/12 01:43:07;;;;;;;10.85;3.97;;;1.50;99.90;;;;;;5014273;28;20030;-52
2022/02/12 01:45:33;;;;;;;20.42;5.25;;;1.50;99.90;;;;;;5014540;28;20037;-55
2022/02/12 01:47:59;;;;;;;10.05;4.20;;;1.50;99.90;;;;;;4995468;28;20042;-53
2022/02/12 01:50:25;;;;;;;9.68;4.38;;;1.60;99.90;;;;;;5013792;28;20038;-55
2022/02/12 01:52:52;;;;;;;13.07;5.22;;;1.50;99.90;;;;;;5013186;28;20061;-53
2022/02/12 01:55:19;;;;;;;14.88;5.53;;;1.50;99.90;;;;;;5013649;28;20053;-52
2022/02/12 01:57:44;;;;;;;12.90;4.57;;;1.50;99.90;;;;;;5013869;28;20038;-50
2022/02/12 02:00:13;;;;;;;9.43;4.65;;;1.50;99.90;;;;;;5014001;28;20401;-53
2022/02/12 02:02:39;;;;;;;11.48;5.05;;;1.50;99.90;;;;;;5012802;28;20034;-51
2022/02/12 02:05:15;;;;;;;14.20;4.70;;;1.40;99.90;;;;;;5013418;28;20038;-53
2022/02/12 02:07:42;;;;;;;18.00;6.28;;;1.40;99.90;;;;;;5012751;28;20036;-54
2022/02/12 02:10:09;;;;;;;12.25;5.30;;;1.30;99.90;;;;;;5013423;28;20076;-52
2022/02/12 02:12:35;;;;;;;11.45;5.15;;;1.20;99.90;;;;;;4995353;28;20044;-53
2022/02/12 02:15:01;;;;;;;11.23;4.75;;;1.30;99.90;;;;;;4995689;28;20393;-55
2022/02/12 02:17:27;;;;;;;11.07;5.57;;;1.30;99.90;;;;;;5013676;28;20025;-53
2022/02/12 02:19:53;;;;;;;10.65;5.13;;;1.30;99.90;;;;;;5014084;28;20049;-55
2022/02/12 02:22:24;;;;;;;13.70;5.28;;;1.20;99.90;;;;;;5013438;28;20117;-49
2022/02/12 02:24:50;;;;;;;15.93;5.07;;;1.30;99.90;;;;;;5013979;28;20513;-51
2022/02/12 02:27:18;;;;;;;10.82;4.90;;;1.30;99.90;;;;;;5013584;28;20042;-55
2022/02/12 02:29:44;;;;;;;14.45;5.30;;;1.30;99.90;;;;;;5013254;28;20034;-54
2022/02/12 02:32:11;;;;;;;16.15;5.53;;;1.30;99.90;;;;;;5012934;28;20029;-55
2022/02/12 02:34:45;;;;;;;12.13;4.70;;;1.40;99.90;;;;;;5017860;28;20498;-50
2022/02/12 02:37:11;;;;;;;13.60;5.10;;;1.30;99.90;;;;;;4996189;28;20708;-48
2022/02/12 02:39:36;;;;;;;14.05;5.55;;;1.30;99.90;;;;;;5013295;28;20052;-49
2022/02/12 02:42:03;;;;;;;16.60;4.80;;;1.20;99.90;;;;;;5013322;28;20057;-51
2022/02/12 02:44:29;;;;;;;8.98;4.45;;;1.20;99.90;;;;;;5012844;28;20456;-51
2022/02/12 02:46:54;;;;;;;8.38;5.32;;;1.20;99.90;;;;;;5013272;28;20062;-53
2022/02/12 02:49:20;;;;;;;9.93;5.15;;;1.10;99.90;;;;;;5012954;28;20124;-53
2022/02/12 02:57:14;;;;;;;14.30;5.57;;;1.20;99.90;;;;;;4997394;28;20486;-53
2022/02/12 02:59:39;;;;;;;13.77;4.75;;;1.30;99.90;;;;;;4998694;28;20041;-52
2022/02/12 03:02:05;;;;;;;15.15;4.63;;;1.40;99.90;;;;;;5016293;28;20390;-50
2022/02/12 03:04:31;;;;;;;10.75;4.50;;;1.40;99.90;;;;;;4998494;28;20472;-53
2022/02/12 03:06:57;;;;;;;11.23;4.55;;;1.30;99.90;;;;;;5016574;28;20029;-56
2022/02/12 03:09:22;;;;;;;10.57;4.55;;;1.10;99.90;;;;;;5016340;28;20117;-52
2022/02/12 03:11:49;;;;;;;8.15;4.10;;;1.20;99.90;;;;;;5017077;28;20080;-54
2022/02/12 03:14:14;;;;;;;17.88;5.03;;;1.30;99.90;;;;;;5016603;28;20026;-52
2022/02/12 03:16:40;;;;;;;9.52;4.35;;;1.40;99.90;;;;;;5017029;28;20033;-54
2022/02/12 03:19:06;;;;;;;12.70;4.63;;;1.40;99.90;;;;;;5016731;28;20037;-54
2022/02/12 03:21:31;;;;;;;10.35;4.75;;;1.40;99.90;;;;;;5016742;28;20069;-52
2022/02/12 03:23:57;;;;;;;10.98;4.63;;;1.50;99.90;;;;;;5016541;28;20145;-55
2022/02/12 03:26:23;;;;;;;9.93;4.15;;;1.50;99.90;;;;;;5016668;28;20045;-52
2022/02/12 03:28:48;;;;;;;13.25;4.50;;;1.60;99.90;;;;;;4998694;28;20112;-54
2022/02/12 03:31:14;;;;;;;12.05;4.57;;;1.60;99.90;;;;;;5017319;28;20040;-51
2022/02/12 03:33:40;;;;;;;11.90;4.53;;;1.60;99.90;;;;;;5016029;28;20115;-53
2022/02/12 03:36:06;;;;;;;13.48;4.60;;;1.60;99.90;;;;;;5016602;28;20030;-53
2022/02/12 03:38:35;;;;;;;9.93;4.55;;;1.60;99.90;;;;;;5016309;28;20040;-53
2022/02/12 03:41:05;;;;;;;11.43;4.05;;;1.60;99.90;;;;;;5016736;28;20037;-52
2022/02/12 03:43:36;;;;;;;12.27;5.13;;;1.60;99.90;;;;;;5016200;28;20489;-55
2022/02/12 03:46:03;;;;;;;16.92;5.00;;;1.50;99.90;;;;;;4998725;28;20405;-54
2022/02/12 03:48:29;;;;;;;10.88;4.30;;;1.50;99.90;;;;;;5015226;28;20030;-54
2022/02/12 03:50:56;;;;;;;15.38;4.20;;;1.60;99.90;;;;;;5015592;28;20045;-52
2022/02/12 03:53:22;;;;;;;13.77;4.20;;;1.60;99.90;;;;;;5015426;28;20067;-55
2022/02/12 03:55:48;;;;;;;8.77;4.80;;;1.60;99.90;;;;;;5015352;28;20638;-57
2022/02/12 03:58:16;;;;;;;10.00;4.55;;;1.50;99.90;;;;;;5015070;28;20034;-51
2022/02/12 04:00:44;;;;;;;12.90;4.68;;;1.50;99.90;;;;;;5016319;28;20038;-50
2022/02/12 04:03:10;;;;;;;14.13;5.43;;;1.40;99.90;;;;;;5015138;28;20045;-53
2022/02/12 04:05:38;;;;;;;11.48;5.10;;;1.20;99.90;;;;;;5016078;28;20042;-54
2022/02/12 04:08:04;;;;;;;12.93;4.40;;;1.10;99.90;;;;;;5015992;28;20044;-53
2022/02/12 04:10:31;;;;;;;12.38;4.10;;;1.20;99.90;;;;;;5015835;28;20040;-55
2022/02/12 04:12:58;;;;;;;12.23;4.20;;;1.10;99.90;;;;;;5014162;28;20044;-53
2022/02/12 04:15:25;;;;;;;12.93;4.20;;;1.10;99.90;;;;;;5014974;28;20065;-52
2022/02/12 04:17:51;;;;;;;15.18;4.50;;;1.20;99.90;;;;;;5015725;28;20062;-54
2022/02/12 04:20:18;;;;;;;10.90;3.97;;;1.30;99.90;;;;;;4997683;28;20034;-53
2022/02/12 04:22:45;;;;;;;11.18;3.78;;;1.30;99.90;;;;;;5014776;28;20041;-52
2022/02/12 04:25:14;;;;;;;14.23;4.97;;;1.30;99.90;;;;;;4997580;28;20040;-53
2022/02/12 04:27:39;;;;;;;9.65;4.25;;;1.40;99.90;;;;;;5014503;28;20066;-53
2022/02/12 04:30:07;;;;;;;13.90;4.63;;;1.40;99.90;;;;;;4998124;28;20057;-53
2022/02/12 04:32:32;;;;;;;11.23;4.85;;;1.40;99.90;;;;;;5014735;28;20038;-51
2022/02/12 04:35:02;;;;;;;9.70;4.85;;;1.30;99.90;;;;;;5015045;28;20160;-53
2022/02/12 04:37:28;;;;;;;15.48;4.45;;;1.40;99.90;;;;;;5014494;28;20124;-54
2022/02/12 04:39:53;;;;;;;10.85;4.15;;;1.50;99.90;;;;;;5014570;28;20119;-53
2022/02/12 04:42:19;;;;;;;16.02;4.50;;;1.50;99.90;;;;;;5014825;28;20048;-51
2022/02/12 04:44:53;;;;;;;12.52;4.53;;;1.40;99.90;;;;;;5014694;28;20449;-55
2022/02/12 04:47:19;;;;;;;12.00;3.97;;;1.40;99.90;;;;;;5014895;28;20026;-55
2022/02/12 04:49:46;;;;;;;11.23;4.00;;;1.30;99.90;;;;;;5014242;28;20050;-54
2022/02/12 04:52:14;;;;;;;11.65;5.00;;;1.30;99.90;;;;;;5014755;28;20417;-55
2022/02/12 04:54:40;;;;;;;15.88;5.00;;;1.20;99.90;;;;;;5015076;28;20564;-56
2022/02/12 04:57:06;;;;;;;12.10;4.13;;;1.20;99.90;;;;;;5014614;28;20647;-54
2022/02/12 04:59:32;;;;;;;9.40;4.35;;;1.20;99.90;;;;;;5014693;28;20030;-57
2022/02/12 05:01:57;;;;;;;7.70;4.70;;;1.20;99.90;;;;;;4996351;28;20081;-54
2022/02/12 05:04:23;;;;;;;9.65;4.30;;;1.20;99.90;;;;;;5014441;28;20038;-53
2022/02/12 05:06:49;;;;;;;12.00;4.68;;;1.10;99.90;;;;;;5013989;28;20034;-52
2022/02/12 05:09:15;;;;;;;11.30;4.25;;;1.20;99.90;;;;;;5013975;28;20026;-55
2022/02/12 05:11:42;;;;;;;9.15;4.05;;;1.10;99.90;;;;;;5014652;28;20338;-56
2022/02/12 05:14:09;;;;;;;15.88;5.32;;;1.10;99.90;;;;;;5013438;28;20083;-57
2022/02/12 05:16:35;;;;;;;13.07;4.28;;;1.10;99.90;;;;;;5015643;28;20406;-56
2022/02/12 05:19:01;;;;;;;14.77;5.05;;;1.10;99.90;;;;;;5013948;28;20030;-53
2022/02/12 05:21:27;;;;;;;12.45;4.30;;;1.10;99.90;;;;;;5013732;28;20032;-56
2022/02/12 05:23:52;;;;;;;15.38;4.53;;;1.10;99.90;;;;;;5013646;28;20109;-55
2022/02/12 05:26:18;;;;;;;11.02;4.10;;;1.10;99.90;;;;;;4996450;28;20060;-55
2022/02/12 05:28:44;;;;;;;8.30;3.53;;;1.10;99.90;;;;;;5013953;28;20065;-55
2022/02/12 05:31:10;;;;;;;9.85;4.40;;;1.20;99.90;;;;;;5014013;28;20482;-56
2022/02/12 05:33:37;;;;;;;17.55;4.38;;;1.10;99.90;;;;;;5013650;28;20449;-53
2022/02/12 05:36:07;;;;;;;17.70;8.45;;;1.10;99.90;;;;;;5013992;28;20018;-54
2022/02/12 05:38:36;;;;;;;16.10;7.47;;;1.10;99.90;;;;;;4996360;28;20042;-54
2022/02/12 05:41:02;;;;;;;14.65;5.95;;;1.10;99.90;;;;;;5015540;28;20056;-53
2022/02/12 05:43:28;;;;;;;13.55;5.22;;;1.10;99.90;;;;;;5014664;28;20061;-56
2022/02/12 05:45:54;;;;;;;12.60;4.00;;;1.10;99.90;;;;;;5014657;28;20037;-56
2022/02/12 05:48:21;;;;;;;8.73;4.85;;;1.20;99.90;;;;;;4996683;28;20038;-53
2022/02/12 05:50:46;;;;;;;15.15;4.63;;;1.10;99.90;;;;;;5013802;28;20062;-55
2022/02/12 05:53:12;;;;;;;15.23;4.40;;;1.10;99.90;;;;;;5015281;28;20076;-54
2022/02/12 05:55:37;;;;;;;12.68;4.18;;;1.10;99.90;;;;;;5013479;28;20033;-56
2022/02/12 05:58:03;;;;;;;9.40;4.25;;;1.10;99.90;;;;;;5014243;28;20101;-54
2022/02/12 06:00:29;;;;;;;9.02;4.40;;;1.00;99.90;;;;;;4997140;28;20034;-55
2022/02/12 06:02:54;;;;;;;14.25;4.72;;;1.00;99.90;;;;;;4996775;28;20041;-55
2022/02/12 06:05:20;;;;;;;7.90;3.70;;;1.10;99.90;;;;;;5014216;28;20040;-58
2022/02/12 06:07:46;;;;;;;13.05;4.43;;;1.00;99.90;;;;;;5013657;28;20084;-55
2022/02/12 06:10:13;;;;;;;16.98;6.18;;;1.00;99.90;;;;;;5013357;28;20042;-54
2022/02/12 06:12:39;;;;;;;8.57;4.82;;;0.90;99.90;;;;;;4998855;28;20033;-56
2022/02/12 06:15:05;;;;;;;13.75;4.70;;;0.90;99.90;;;;;;5013635;28;20126;-55
2022/02/12 06:17:30;;;;;;;11.90;4.55;;;0.90;99.90;;;;;;4995668;28;20466;-57
2022/02/12 06:19:56;;;;;;;13.45;4.22;;;0.90;99.90;;;;;;5013104;28;20128;-54
2022/02/12 06:22:24;;;;;;;11.43;4.38;;;1.00;99.90;;;;;;5013143;28;20736;-60
2022/02/12 06:24:50;;;;;;;9.50;4.50;;;0.90;99.90;;;;;;4996426;28;20034;-57
2022/02/12 06:27:15;;;;;;;20.75;9.73;;;1.00;99.90;;;;;;5012754;28;20129;-57
2022/02/12 06:29:41;;;;;;;16.00;7.63;;;1.00;99.90;;;;;;5015812;28;20117;-61
2022/02/12 06:32:07;;;;;;;14.55;6.30;;;1.00;99.90;;;;;;5012597;28;20053;-57
2022/02/12 06:34:33;;;;;;;15.07;5.82;;;0.90;99.90;;;;;;5013045;28;20118;-56
2022/02/12 06:36:58;;;;;;;12.90;5.63;;;1.00;99.90;;;;;;4995157;28;20041;-57
2022/02/12 06:39:24;;;;;;;9.32;5.50;;;1.00;99.90;;;;;;5012783;28;20374;-55
2022/02/12 06:41:49;;;;;;;15.73;9.38;;;1.00;99.90;;;;;;5012702;28;20387;-59
2022/02/12 06:44:15;;;;;;;19.67;8.88;;;1.10;99.90;;;;;;4994962;28;20041;-56
2022/02/12 06:46:40;;;;;;;14.25;5.93;;;1.10;99.90;;;;;;4995260;28;20034;-55
2022/02/12 06:49:06;;;;;;;10.60;5.10;;;1.10;99.90;;;;;;5013240;28;20041;-56
2022/02/12 06:51:31;;;;;;;10.80;5.75;;;1.00;99.90;;;;;;5012865;28;20040;-53
2022/02/12 06:53:57;;;;;;;11.00;6.00;;;1.10;99.90;;;;;;5013478;28;20051;-58
2022/02/12 06:56:22;;;;;;;11.02;4.88;;;1.00;99.90;;;;;;5013569;28;20046;-55
2022/02/12 06:58:48;;;;;;;11.48;5.38;;;1.10;99.90;;;;;;5012390;28;20054;-57
2022/02/12 07:01:13;;;;;;;12.55;4.95;;;1.10;99.90;;;;;;5011889;28;20108;-56
2022/02/12 07:03:39;;;;;;;7.55;4.40;;;1.20;99.90;;;;;;5012884;28;20049;-55
2022/02/12 07:06:04;;;;;;;7.60;4.18;;;1.20;99.90;;;;;;5003097;28;20060;-54
2022/02/12 07:08:30;;;;;;;12.98;5.25;;;1.20;99.90;;;;;;5013365;28;20060;-55
2022/02/12 07:10:55;;;;;;;11.65;4.82;;;1.30;99.90;;;;;;5013204;28;20133;-53
2022/02/12 07:13:22;;;;;;;14.65;5.38;;;1.30;99.90;;;;;;5012323;28;20124;-54
2022/02/12 07:15:47;;;;;;;8.93;5.15;;;1.30;99.90;;;;;;5012813;28;20464;-56
2022/02/12 07:18:13;;;;;;;14.32;5.80;;;1.20;99.90;;;;;;4995217;28;20026;-53
2022/02/12 07:20:38;;;;;;;17.35;5.40;;;1.30;99.90;;;;;;5012986;28;20125;-56
2022/02/12 07:23:04;;;;;;;11.38;5.10;;;1.20;99.90;;;;;;4995241;28;20470;-56
2022/02/12 07:25:29;;;;;;;13.65;5.93;;;1.30;99.90;;;;;;4994848;28;20038;-54
2022/02/12 07:27:58;;;;;;;13.35;5.50;;;1.30;99.90;;;;;;5012747;28;20070;-56
2022/02/12 07:30:24;;;;;;;17.77;5.47;;;1.30;99.90;;;;;;4994858;28;20053;-54
2022/02/12 07:32:51;;;;;;;17.52;5.95;;;1.40;99.90;;;;;;5013107;28;20074;-56
2022/02/12 07:35:17;;;;;;;9.65;4.95;;;1.40;99.90;;;;;;5016775;28;20069;-54
2022/02/12 07:37:45;;;;;;;13.52;5.80;;;1.40;99.90;;;;;;5013170;28;20056;-53
2022/02/12 07:40:12;;;;;;;15.45;5.65;;;1.50;99.90;;;;;;5017179;28;20117;-57
2022/02/12 07:42:38;;;;;;;13.85;6.50;;;1.60;99.90;;;;;;5007586;28;20033;-56
2022/02/12 07:45:05;;;;;;;14.10;5.90;;;1.60;99.90;;;;;;5016067;28;20041;-55
2022/02/12 07:47:30;;;;;;;13.52;6.30;;;1.50;99.90;;;;;;5015524;28;20125;-58
2022/02/12 07:49:56;;;;;;;12.50;5.25;;;1.60;99.90;;;;;;5016085;28;20084;-53
2022/02/12 07:52:22;;;;;;;11.98;5.45;;;1.60;99.90;;;;;;5015479;28;20052;-53
2022/02/12 07:54:48;;;;;;;11.73;5.60;;;1.70;99.90;;;;;;5015328;28;20030;-57
2022/02/12 07:57:13;;;;;;;11.05;6.00;;;1.80;99.90;;;;;;5015482;28;20026;-58
2022/02/12 07:59:39;;;;;;;13.35;6.43;;;1.90;99.90;;;;;;5015276;28;20052;-57
2022/02/12 08:02:06;;;;;;;16.23;6.32;;;1.90;99.90;;;;;;5015189;28;20200;-57
2022/02/12 08:04:32;;;;;;;12.10;6.70;;;1.90;99.90;;;;;;4989491;28;20029;-54
2022/02/12 08:09:46;;;;;;;15.35;7.38;;;1.90;99.90;;;;;;5021893;28;20113;-55
2022/02/12 08:12:15;;;;;;;16.92;7.13;;;2.00;99.90;;;;;;5015340;28;20033;-58
2022/02/12 08:14:42;;;;;;;18.05;7.63;;;2.10;99.90;;;;;;5015561;28;20037;-56
2022/02/12 08:17:08;;;;;;;19.25;9.85;;;2.10;99.90;;;;;;5015293;28;20405;-56
2022/02/12 08:19:33;;;;;;;21.60;9.27;;;2.00;99.90;;;;;;5012951;28;20025;-57
2022/02/12 08:21:59;;;;;;;14.73;8.18;;;2.10;99.90;;;;;;5014951;28;20047;-61
2022/02/12 08:24:24;;;;;;;13.70;8.02;;;2.20;99.90;;;;;;5014876;28;20367;-56
2022/02/12 08:26:50;;;;;;;20.73;8.40;;;2.20;99.90;;;;;;5015065;28;20030;-60
2022/02/12 08:29:19;;;;;;;17.67;8.60;;;2.30;99.90;;;;;;4978977;28;20485;-58
2022/02/12 08:31:44;;;;;;;16.15;8.50;;;2.30;99.90;;;;;;5014513;28;20536;-55
2022/02/12 08:34:10;;;;;;;14.75;8.82;;;2.20;99.90;;;;;;5013583;28;20045;-52
2022/02/12 08:36:35;;;;;;;36.13;16.25;;;2.30;99.90;;;;;;5006820;28;20040;-56
2022/02/12 08:39:01;;;;;;;24.35;11.68;;;2.40;99.90;;;;;;5014907;28;20041;-54
2022/02/12 08:41:27;;;;;;;22.33;10.57;;;2.30;99.90;;;;;;5014838;28;20037;-59
2022/02/12 08:43:52;;;;;;;20.67;8.75;;;2.40;99.90;;;;;;5014860;28;20595;-55
2022/02/12 08:46:18;;;;;;;21.58;9.07;;;2.50;99.90;;;;;;5008875;28;20496;-58
2022/02/12 08:48:43;;;;;;;20.15;10.00;;;2.50;99.90;;;;;;5014130;28;20037;-54
2022/02/12 08:51:11;;;;;;;22.98;10.85;;;2.50;99.90;;;;;;5014698;28;20069;-56
2022/02/12 08:53:37;;;;;;;18.55;10.15;;;2.60;99.90;;;;;;5013627;28;20080;-59
2022/02/12 08:56:02;;;;;;;17.73;10.20;;;2.70;99.90;;;;;;5009793;28;20026;-55
2022/02/12 08:58:28;;;;;;;18.50;9.15;;;2.70;99.90;;;;;;5014765;28;20030;-58
2022/02/12 09:00:54;;;;;;;22.95;10.57;;;2.80;99.90;;;;;;5013713;28;20153;-56
2022/02/12 09:03:19;;;;;;;27.48;15.98;;;2.90;99.90;;;;;;5015956;28;20029;-52
2022/02/12 09:05:45;;;;;;;21.05;11.95;;;2.90;99.90;;;;;;5019303;28;20030;-56
2022/02/12 09:08:11;;;;;;;24.85;11.93;;;3.00;99.90;;;;;;5015187;28;20053;-59
2022/02/12 09:10:37;;;;;;;28.77;14.73;;;3.00;99.90;;;;;;5014688;28;20073;-56
2022/02/12 09:13:03;;;;;;;22.83;12.93;;;3.10;99.90;;;;;;4995539;28;20126;-55
2022/02/12 09:15:29;;;;;;;22.25;10.55;;;3.20;99.90;;;;;;4994291;28;20480;-60
2022/02/12 09:17:54;;;;;;;17.73;9.55;;;3.30;99.90;;;;;;5014713;28;20034;-58
2022/02/12 09:20:20;;;;;;;16.45;9.15;;;3.30;99.90;;;;;;5013178;28;20080;-55
2022/02/12 09:22:46;;;;;;;18.92;8.90;;;3.30;99.90;;;;;;4996276;28;20045;-59
2022/02/12 09:25:12;;;;;;;19.50;9.18;;;3.30;99.90;;;;;;5013574;28;20042;-60
2022/02/12 09:27:38;;;;;;;22.95;9.38;;;3.40;99.90;;;;;;5013655;28;20029;-54
2022/02/12 09:30:05;;;;;;;18.40;8.68;;;3.50;99.90;;;;;;4996457;28;20044;-57
2022/02/12 09:32:31;;;;;;;27.08;9.90;;;3.50;99.90;;;;;;5013004;28;20033;-54
2022/02/12 09:34:56;;;;;;;22.27;10.43;;;3.50;99.90;;;;;;5013756;28;20022;-57
2022/02/12 09:37:22;;;;;;;27.35;12.73;;;3.60;99.90;;;;;;5016271;28;20583;-55
2022/02/12 09:39:47;;;;;;;19.40;10.20;;;3.60;99.90;;;;;;5013951;28;20038;-58
2022/02/12 09:42:14;;;;;;;18.77;9.25;;;3.70;99.90;;;;;;4995324;28;20041;-54
2022/02/12 09:44:40;;;;;;;14.73;8.10;;;3.80;99.90;;;;;;5012301;28;20033;-56
2022/02/12 09:47:41;;;;;;;19.40;8.45;;;4.00;99.90;;;;;;5019196;28;20033;-55
2022/02/12 09:50:08;;;;;;;10.93;6.35;;;4.00;99.90;;;;;;4993163;28;20030;-50
2022/02/12 09:52:34;;;;;;;16.92;6.72;;;3.90;99.90;;;;;;5012458;28;20030;-55
2022/02/12 09:55:01;;;;;;;12.73;6.43;;;3.90;99.90;;;;;;5013464;28;20486;-56
2022/02/12 09:57:27;;;;;;;12.10;5.43;;;3.90;99.90;;;;;;5014648;28;20030;-57
2022/02/12 10:00:01;;;;;;;16.25;7.15;;;4.00;99.90;;;;;;5013718;28;20025;-52
2022/02/12 10:02:27;;;;;;;20.33;7.00;;;4.00;99.90;;;;;;5013838;28;20041;-55
2022/02/12 10:05:28;;;;;;;16.05;8.15;;;4.00;99.90;;;;;;5012952;28;20050;-56
2022/02/12 10:08:00;;;;;;;13.35;8.30;;;4.00;99.90;;;;;;5013622;28;20030;-59
2022/02/12 10:10:27;;;;;;;20.77;9.55;;;4.10;99.90;;;;;;5014167;28;20064;-59
2022/02/12 10:13:08;;;;;;;16.90;8.68;;;4.00;99.90;;;;;;5009945;28;20097;-53
2022/02/12 10:15:34;;;;;;;15.88;8.65;;;4.30;99.90;;;;;;5012212;28;20449;-55
2022/02/12 10:18:01;;;;;;;15.80;7.28;;;4.90;99.90;;;;;;5011964;28;20030;-55
2022/02/12 10:20:32;;;;;;;14.35;6.88;;;5.40;99.90;;;;;;5004267;28;20040;-57
2022/02/12 10:23:17;;;;;;;11.38;6.28;;;5.70;99.90;;;;;;4998975;28;20038;-57
2022/02/12 10:25:46;;;;;;;15.05;5.82;;;6.00;99.90;;;;;;5011549;28;20032;-57
2022/02/12 10:28:14;;;;;;;19.30;6.68;;;6.10;99.90;;;;;;5010890;28;20083;-62
2022/02/12 10:30:40;;;;;;;11.55;5.85;;;6.20;99.90;;;;;;5014279;28;20041;-60
2022/02/12 10:33:07;;;;;;;10.70;6.50;;;6.30;99.90;;;;;;5006558;28;20389;-57
2022/02/12 10:35:34;;;;;;;12.85;6.82;;;6.50;99.90;;;;;;4992254;28;20030;-59
2022/02/12 10:38:05;;;;;;;10.68;6.07;;;6.60;99.40;;;;;;5010500;28;20038;-60
2022/02/12 10:40:32;;;;;;;13.15;7.40;;;6.30;99.60;;;;;;5012289;28;20038;-60
2022/02/12 10:42:58;;;;;;;12.80;5.50;;;6.40;99.40;;;;;;4994915;28;20033;-56
2022/02/12 10:45:26;;;;;;;14.27;4.88;;;6.10;98.20;;;;;;5011044;28;20085;-56
2022/02/12 10:47:53;;;;;;;11.32;5.47;;;5.70;97.40;;;;;;5009801;28;20544;-56
2022/02/12 10:50:21;;;;;;;12.85;5.13;;;5.50;98.70;;;;;;5015593;28;20038;-57
2022/02/12 10:52:50;;;;;;;8.57;4.00;;;5.60;99.90;;;;;;4993592;28;20027;-58
2022/02/12 10:55:34;;;;;;;11.25;4.45;;;5.60;97.40;;;;;;5003885;28;20038;-56
2022/02/12 10:58:05;;;;;;;8.85;3.50;;;5.50;97.50;;;;;;5018095;28;20508;-57
2022/02/12 11:00:33;;;;;;;22.08;9.63;;;5.30;97.50;;;;;;5014963;28;20406;-53
2022/02/12 11:03:01;;;;;;;11.43;3.20;;;5.20;97.20;;;;;;5013211;28;20088;-56
2022/02/12 11:05:28;;;;;;;6.03;3.00;;;5.20;95.80;;;;;;5012463;28;20476;-56
2022/02/12 11:07:54;;;;;;;13.15;4.68;;;5.20;95.80;;;;;;5012950;28;20137;-56
2022/02/12 11:10:21;;;;;;;12.95;3.70;;;5.00;96.70;;;;;;5012463;28;20064;-55
2022/02/12 11:12:51;;;;;;;10.13;3.72;;;4.90;97.00;;;;;;5016210;28;20116;-55
2022/02/12 11:15:17;;;;;;;8.20;3.80;;;5.00;97.00;;;;;;5000539;28;20065;-56
2022/02/12 11:17:44;;;;;;;8.68;4.05;;;4.90;97.60;;;;;;5016075;28;20053;-55
2022/02/12 11:20:11;;;;;;;9.90;4.35;;;4.90;96.90;;;;;;5000328;28;20100;-51
2022/02/12 11:22:41;;;;;;;12.82;5.70;;;5.00;97.20;;;;;;5009699;28;20034;-56
2022/02/12 11:25:36;;;;;;;10.40;3.45;;;5.20;97.00;;;;;;5016442;28;20037;-56
2022/02/12 11:28:06;;;;;;;6.93;3.33;;;5.20;95.80;;;;;;5009924;28;20068;-56
2022/02/12 11:30:32;;;;;;;10.02;3.40;;;5.10;96.40;;;;;;4999481;28;20034;-57
2022/02/12 11:33:07;;;;;;;11.27;3.80;;;5.10;95.20;;;;;;4999260;28;20064;-56
2022/02/12 11:35:32;;;;;;;9.50;3.38;;;5.10;94.50;;;;;;5015941;28;20025;-55
2022/02/12 11:37:59;;;;;;;7.82;3.22;;;5.20;94.40;;;;;;5016411;28;20048;-56
2022/02/12 11:40:30;;;;;;;6.65;3.50;;;5.30;94.00;;;;;;5016424;28;20034;-55
2022/02/12 11:43:05;;;;;;;6.28;3.08;;;5.30;93.90;;;;;;5016182;28;20037;-54
2022/02/12 11:45:46;;;;;;;7.72;3.40;;;5.30;91.90;;;;;;5014906;28;20022;-55
2022/02/12 11:48:27;;;;;;;9.45;3.42;;;5.30;93.10;;;;;;5016154;28;20096;-53
2022/02/12 11:51:07;;;;;;;7.25;3.17;;;5.30;93.30;;;;;;5016568;28;20033;-60
2022/02/12 11:53:43;;;;;;;5.40;3.33;;;5.30;93.30;;;;;;5016931;28;20066;-57
2022/02/12 11:56:10;;;;;;;8.43;3.05;;;5.30;92.50;;;;;;4998299;28;20045;-58
2022/02/12 11:58:42;;;;;;;6.95;2.88;;;5.30;92.70;;;;;;4998558;28;20049;-56
2022/02/12 12:01:24;;;;;;;8.63;2.83;;;5.40;92.90;;;;;;5015960;28;20030;-54
2022/02/12 12:04:15;;;;;;;11.48;3.65;;;5.50;92.60;;;;;;5015174;28;20040;-56
2022/02/12 12:06:59;;;;;;;7.90;3.25;;;5.50;91.80;;;;;;5016192;28;20038;-56
2022/02/12 12:09:25;;;;;;;7.18;3.08;;;5.60;91.10;;;;;;5015376;28;20032;-54
2022/02/12 12:12:11;;;;;;;6.85;2.70;;;5.50;91.40;;;;;;4998548;28;20038;-56
2022/02/12 12:14:38;;;;;;;7.50;3.95;;;5.50;91.60;;;;;;5015664;28;20030;-52
2022/02/12 12:17:05;;;;;;;7.97;3.13;;;5.60;91.70;;;;;;5015413;28;20446;-56
2022/02/12 12:19:33;;;;;;;11.70;3.72;;;5.70;91.10;;;;;;5016177;28;20029;-56
2022/02/12 12:22:07;;;;;;;6.82;2.58;;;5.80;90.70;;;;;;5015536;28;20026;-59
2022/02/12 12:24:33;;;;;;;7.88;3.50;;;5.60;90.60;;;;;;5012867;28;20029;-57
2022/02/12 12:26:58;;;;;;;7.38;3.42;;;5.60;91.00;;;;;;5016026;28;20053;-56
2022/02/12 12:32:21;;;;;;;6.20;3.17;;;5.60;90.40;;;;;;5015539;28;20104;-53
2022/02/12 12:35:00;;;;;;;8.20;3.05;;;5.70;90.30;;;;;;5015813;28;20065;-54
2022/02/12 12:37:27;;;;;;;7.43;2.78;;;5.70;90.10;;;;;;5015039;28;20168;-54
2022/02/12 12:39:56;;;;;;;6.25;2.78;;;5.80;90.20;;;;;;4998924;28;20104;-56
2022/02/12 12:42:24;;;;;;;6.30;2.90;;;5.80;89.00;;;;;;5015520;28;20032;-58
2022/02/12 12:45:16;;;;;;;5.38;3.38;;;5.80;89.60;;;;;;5015803;28;20036;-55
2022/02/12 12:47:52;;;;;;;6.15;3.35;;;6.10;88.50;;;;;;5012228;28;20038;-56
2022/02/12 12:50:18;;;;;;;5.57;2.65;;;6.10;87.00;;;;;;5016003;28;20037;-56
2022/02/12 12:52:44;;;;;;;7.40;2.72;;;6.20;88.50;;;;;;5015278;28;20080;-55
2022/02/12 12:55:12;;;;;;;7.25;3.10;;;6.30;88.10;;;;;;5015822;28;20034;-54
2022/02/12 12:57:41;;;;;;;7.53;3.63;;;6.20;87.70;;;;;;5014494;28;20091;-51
2022/02/12 13:00:08;;;;;;;6.43;2.92;;;6.20;87.30;;;;;;5014600;28;20022;-56